RYR9MJ LEMH-EGCC
Flight info
| Callsign | RYR9MJ |
|---|---|
| Flight time | 2h 19m |
| Altitude | 34000 |
| Route | MEROS N853 LUMAS/N0444F360 DCT SOFFY DCT MRM DCT MTL DCT ETREK DCT MADOT DCT MOPEM DCT CACHI DCT AVLON DCT OKRIX DCT BRY DCT CLM DCT KOPOR DCT VESAN DCT RATUK DCT SOVAT L613 SANDY UN57 WELIN T420 ELVOS |
| Aircraft | B738/M-SDE2E3FGHIRWXY/LB1 |
Departure
| Time | 2026-04-15 11:21 |
|---|---|
| Airport | Menorca Airport (LEMH) |
Arrival
| Time | 2026-04-15 13:40 |
|---|---|
| Airport | Manchester Airport (EGCC) |
| Time | Latitude | Longitude | Altitude | Speed | Heading |
|---|---|---|---|---|---|
| 2026-04-15 11:05 | 39.86371 | 4.22396 | 274 ft | 0 kts | 98° |
| 2026-04-15 11:14 | 39.86371 | 4.22389 | 274 ft | 2 kts | 96° |
| 2026-04-15 11:15 | 39.86373 | 4.22370 | 275 ft | 2 kts | 99° |
| 2026-04-15 11:15 | 39.86375 | 4.22351 | 275 ft | 2 kts | 98° |
| 2026-04-15 11:15 | 39.86378 | 4.22331 | 276 ft | 2 kts | 112° |
| 2026-04-15 11:15 | 39.86386 | 4.22315 | 276 ft | 2 kts | 139° |
| 2026-04-15 11:16 | 39.86399 | 4.22306 | 277 ft | 2 kts | 165° |
| 2026-04-15 11:16 | 39.86412 | 4.22304 | 277 ft | 0 kts | 186° |
| 2026-04-15 11:16 | 39.86418 | 4.22306 | 277 ft | 0 kts | 189° |
| 2026-04-15 11:17 | 39.86414 | 4.22305 | 277 ft | 3 kts | 190° |
| 2026-04-15 11:17 | 39.86363 | 4.22295 | 276 ft | 11 kts | 188° |
| 2026-04-15 11:17 | 39.86266 | 4.22275 | 277 ft | 17 kts | 189° |
| 2026-04-15 11:18 | 39.86188 | 4.22169 | 279 ft | 22 kts | 283° |
| 2026-04-15 11:18 | 39.86077 | 4.22066 | 282 ft | 25 kts | 188° |
| 2026-04-15 11:18 | 39.85878 | 4.22025 | 282 ft | 32 kts | 189° |
| 2026-04-15 11:18 | 39.85654 | 4.21980 | 278 ft | 27 kts | 189° |
| 2026-04-15 11:19 | 39.85468 | 4.21941 | 275 ft | 27 kts | 188° |
| 2026-04-15 11:19 | 39.85278 | 4.21899 | 270 ft | 27 kts | 190° |
| 2026-04-15 11:19 | 39.85126 | 4.21841 | 268 ft | 19 kts | 245° |
| 2026-04-15 11:19 | 39.85136 | 4.21692 | 268 ft | 10 kts | 262° |
| 2026-04-15 11:20 | 39.85161 | 4.21639 | 268 ft | 4 kts | 9° |
| 2026-04-15 11:20 | 39.85177 | 4.21643 | 269 ft | 2 kts | 8° |
| 2026-04-15 11:20 | 39.85293 | 4.21667 | 271 ft | 48 kts | 9° |
| 2026-04-15 11:20 | 39.85871 | 4.21785 | 285 ft | 118 kts | 8° |
| 2026-04-15 11:21 | 39.86869 | 4.22016 | 452 ft | 162 kts | 8° |
| 2026-04-15 11:21 | 39.87964 | 4.22249 | 1237 ft | 164 kts | 4° |
| 2026-04-15 11:21 | 39.89089 | 4.22128 | 1968 ft | 171 kts | 351° |
| 2026-04-15 11:21 | 39.90313 | 4.22111 | 2582 ft | 186 kts | 7° |
| 2026-04-15 11:22 | 39.91613 | 4.22474 | 3225 ft | 199 kts | 11° |
| 2026-04-15 11:22 | 39.93007 | 4.22882 | 3809 ft | 216 kts | 9° |
| 2026-04-15 11:22 | 39.94534 | 4.23283 | 4397 ft | 233 kts | 9° |
| 2026-04-15 11:22 | 39.96166 | 4.23703 | 5064 ft | 247 kts | 10° |
| 2026-04-15 11:23 | 39.97863 | 4.24149 | 5938 ft | 252 kts | 11° |
| 2026-04-15 11:23 | 39.99588 | 4.24606 | 6803 ft | 257 kts | 11° |
| 2026-04-15 11:23 | 40.01328 | 4.25064 | 7668 ft | 261 kts | 11° |
| 2026-04-15 11:23 | 40.03114 | 4.25503 | 8517 ft | 265 kts | 10° |
| 2026-04-15 11:24 | 40.04913 | 4.25924 | 9378 ft | 267 kts | 9° |
| 2026-04-15 11:24 | 40.06755 | 4.26352 | 10255 ft | 269 kts | 10° |
| 2026-04-15 11:24 | 40.08606 | 4.26785 | 10895 ft | 279 kts | 10° |
| 2026-04-15 11:24 | 40.10581 | 4.27252 | 11377 ft | 295 kts | 10° |
| 2026-04-15 11:25 | 40.12643 | 4.27742 | 11855 ft | 311 kts | 10° |
| 2026-04-15 11:25 | 40.14809 | 4.28257 | 12337 ft | 324 kts | 10° |
| 2026-04-15 11:25 | 40.17040 | 4.28786 | 13108 ft | 329 kts | 11° |
| 2026-04-15 11:25 | 40.19291 | 4.29320 | 13917 ft | 331 kts | 10° |
| 2026-04-15 11:26 | 40.21545 | 4.29856 | 14669 ft | 334 kts | 10° |
| 2026-04-15 11:26 | 40.23856 | 4.30406 | 15451 ft | 337 kts | 11° |
| 2026-04-15 11:26 | 40.26147 | 4.30951 | 16185 ft | 339 kts | 11° |
| 2026-04-15 11:26 | 40.28459 | 4.31502 | 16895 ft | 342 kts | 11° |
| 2026-04-15 11:27 | 40.30797 | 4.32059 | 17611 ft | 344 kts | 11° |
| 2026-04-15 11:27 | 40.33157 | 4.32622 | 18292 ft | 347 kts | 11° |
| 2026-04-15 11:27 | 40.35529 | 4.33189 | 19094 ft | 345 kts | 10° |
| 2026-04-15 11:27 | 40.37894 | 4.33754 | 19745 ft | 348 kts | 11° |
| 2026-04-15 11:28 | 40.40243 | 4.34315 | 20391 ft | 349 kts | 11° |
| 2026-04-15 11:28 | 40.42622 | 4.34884 | 21063 ft | 349 kts | 11° |
| 2026-04-15 11:28 | 40.45028 | 4.35460 | 21703 ft | 350 kts | 11° |
| 2026-04-15 11:28 | 40.47401 | 4.36028 | 22286 ft | 351 kts | 11° |
| 2026-04-15 11:29 | 40.49800 | 4.36603 | 22904 ft | 351 kts | 11° |
| 2026-04-15 11:29 | 40.52225 | 4.37183 | 23410 ft | 354 kts | 10° |
| 2026-04-15 11:29 | 40.54657 | 4.37763 | 23947 ft | 356 kts | 10° |
| 2026-04-15 11:29 | 40.57073 | 4.38340 | 24463 ft | 358 kts | 10° |
| 2026-04-15 11:30 | 40.59546 | 4.38931 | 24970 ft | 360 kts | 10° |
| 2026-04-15 11:30 | 40.61998 | 4.39518 | 25486 ft | 361 kts | 10° |
| 2026-04-15 11:30 | 40.64491 | 4.40114 | 25954 ft | 364 kts | 9° |
| 2026-04-15 11:30 | 40.66976 | 4.40708 | 26356 ft | 367 kts | 10° |
| 2026-04-15 11:31 | 40.69501 | 4.41313 | 26829 ft | 369 kts | 9° |
| 2026-04-15 11:31 | 40.71995 | 4.41911 | 27307 ft | 370 kts | 9° |
| 2026-04-15 11:31 | 40.74543 | 4.42523 | 27686 ft | 373 kts | 9° |
| 2026-04-15 11:31 | 40.77091 | 4.43135 | 28125 ft | 374 kts | 9° |
| 2026-04-15 11:32 | 40.79669 | 4.43755 | 28586 ft | 375 kts | 9° |
| 2026-04-15 11:32 | 40.82237 | 4.44373 | 28921 ft | 379 kts | 9° |
| 2026-04-15 11:32 | 40.84832 | 4.44999 | 29279 ft | 381 kts | 9° |
| 2026-04-15 11:32 | 40.87448 | 4.45630 | 29668 ft | 383 kts | 9° |
| 2026-04-15 11:33 | 40.90065 | 4.46261 | 30087 ft | 383 kts | 9° |
| 2026-04-15 11:33 | 40.92648 | 4.46884 | 30674 ft | 380 kts | 9° |
| 2026-04-15 11:33 | 40.95245 | 4.47512 | 31284 ft | 375 kts | 9° |
| 2026-04-15 11:33 | 40.97796 | 4.48129 | 31664 ft | 376 kts | 9° |
| 2026-04-15 11:34 | 41.00359 | 4.48748 | 32024 ft | 376 kts | 9° |
| 2026-04-15 11:34 | 41.02933 | 4.49370 | 32453 ft | 375 kts | 9° |
| 2026-04-15 11:34 | 41.05499 | 4.49992 | 32929 ft | 373 kts | 9° |
| 2026-04-15 11:34 | 41.08034 | 4.50607 | 33360 ft | 371 kts | 9° |
| 2026-04-15 11:35 | 41.10579 | 4.51226 | 33681 ft | 371 kts | 9° |
| 2026-04-15 11:35 | 41.13094 | 4.51839 | 34066 ft | 371 kts | 9° |
| 2026-04-15 11:35 | 41.15628 | 4.52458 | 34556 ft | 369 kts | 9° |
| 2026-04-15 11:35 | 41.18145 | 4.53074 | 35003 ft | 367 kts | 9° |
| 2026-04-15 11:36 | 41.20641 | 4.53683 | 35362 ft | 367 kts | 8° |
| 2026-04-15 11:36 | 41.23154 | 4.54297 | 35765 ft | 366 kts | 9° |
| 2026-04-15 11:36 | 41.25650 | 4.54909 | 36111 ft | 366 kts | 9° |
| 2026-04-15 11:36 | 41.28180 | 4.55528 | 36137 ft | 369 kts | 9° |
| 2026-04-15 11:37 | 41.33156 | 4.56749 | 36139 ft | 365 kts | 9° |
| 2026-04-15 11:37 | 41.38172 | 4.57979 | 36140 ft | 367 kts | 9° |
| 2026-04-15 11:38 | 41.43150 | 4.59202 | 36137 ft | 365 kts | 9° |
| 2026-04-15 11:38 | 41.48175 | 4.60438 | 36135 ft | 366 kts | 9° |
| 2026-04-15 11:39 | 41.53151 | 4.61661 | 36135 ft | 366 kts | 9° |
| 2026-04-15 11:39 | 41.58174 | 4.62902 | 36138 ft | 366 kts | 9° |
| 2026-04-15 11:40 | 41.63154 | 4.64137 | 36135 ft | 366 kts | 9° |
| 2026-04-15 11:40 | 41.68171 | 4.65382 | 36134 ft | 366 kts | 10° |
| 2026-04-15 11:41 | 41.73202 | 4.66641 | 36136 ft | 369 kts | 11° |
| 2026-04-15 11:41 | 41.78130 | 4.68363 | 36133 ft | 368 kts | 15° |
| 2026-04-15 11:42 | 41.83034 | 4.70366 | 36134 ft | 369 kts | 15° |
| 2026-04-15 11:42 | 41.87944 | 4.72351 | 36133 ft | 369 kts | 15° |
| 2026-04-15 11:43 | 41.92836 | 4.74295 | 36132 ft | 369 kts | 15° |
| 2026-04-15 11:43 | 41.97767 | 4.76244 | 36133 ft | 370 kts | 14° |
| 2026-04-15 11:44 | 42.02727 | 4.78201 | 36131 ft | 376 kts | 14° |
| 2026-04-15 11:44 | 42.07800 | 4.80201 | 36133 ft | 386 kts | 15° |
| 2026-04-15 11:45 | 42.13041 | 4.82271 | 36130 ft | 397 kts | 15° |
| 2026-04-15 11:45 | 42.18359 | 4.84378 | 36128 ft | 401 kts | 15° |
| 2026-04-15 11:46 | 42.23676 | 4.86491 | 36131 ft | 399 kts | 14° |
| 2026-04-15 11:46 | 42.29024 | 4.88618 | 36126 ft | 400 kts | 15° |
| 2026-04-15 11:47 | 42.34347 | 4.90739 | 36129 ft | 401 kts | 15° |
| 2026-04-15 11:47 | 42.39671 | 4.92865 | 36125 ft | 401 kts | 15° |
| 2026-04-15 11:48 | 42.45019 | 4.95003 | 36124 ft | 401 kts | 15° |
| 2026-04-15 11:48 | 42.50392 | 4.97155 | 36122 ft | 402 kts | 15° |
| 2026-04-15 11:49 | 42.55725 | 4.99294 | 36120 ft | 401 kts | 15° |
| 2026-04-15 11:49 | 42.61086 | 5.01449 | 36118 ft | 403 kts | 15° |
| 2026-04-15 11:50 | 42.66428 | 5.03599 | 36118 ft | 403 kts | 15° |
| 2026-04-15 11:50 | 42.71801 | 5.05767 | 36118 ft | 403 kts | 15° |
| 2026-04-15 11:51 | 42.77176 | 5.07938 | 36114 ft | 403 kts | 15° |
| 2026-04-15 11:51 | 42.82550 | 5.10113 | 36116 ft | 403 kts | 15° |
| 2026-04-15 11:52 | 42.87877 | 5.12274 | 36113 ft | 403 kts | 15° |
| 2026-04-15 11:52 | 42.93285 | 5.14472 | 36113 ft | 405 kts | 15° |
| 2026-04-15 11:53 | 42.98659 | 5.16660 | 36107 ft | 403 kts | 15° |
| 2026-04-15 11:53 | 43.03998 | 5.18836 | 36109 ft | 404 kts | 15° |
| 2026-04-15 11:54 | 43.09402 | 5.21037 | 36105 ft | 404 kts | 15° |
| 2026-04-15 11:54 | 43.14803 | 5.23237 | 36103 ft | 407 kts | 15° |
| 2026-04-15 11:55 | 43.20201 | 5.25443 | 36103 ft | 406 kts | 15° |
| 2026-04-15 11:55 | 43.25623 | 5.27661 | 36100 ft | 407 kts | 15° |
| 2026-04-15 11:56 | 43.31029 | 5.29877 | 36102 ft | 407 kts | 15° |
| 2026-04-15 11:56 | 43.36503 | 5.31549 | 36098 ft | 406 kts | 4° |
| 2026-04-15 11:57 | 43.39328 | 5.31459 | 36103 ft | 407 kts | 353° |
| 2026-04-15 11:57 | 43.44867 | 5.29558 | 36103 ft | 410 kts | 344° |
| 2026-04-15 11:58 | 43.50249 | 5.27083 | 36103 ft | 410 kts | 343° |
| 2026-04-15 11:58 | 43.55671 | 5.24541 | 36109 ft | 413 kts | 343° |
| 2026-04-15 11:59 | 43.61099 | 5.22021 | 36104 ft | 412 kts | 343° |
| 2026-04-15 11:59 | 43.66538 | 5.19509 | 36106 ft | 413 kts | 343° |
| 2026-04-15 12:00 | 43.71993 | 5.16997 | 36102 ft | 414 kts | 343° |
| 2026-04-15 12:00 | 43.77439 | 5.14487 | 36105 ft | 414 kts | 343° |
| 2026-04-15 12:01 | 43.82905 | 5.11963 | 36102 ft | 415 kts | 343° |
| 2026-04-15 12:01 | 43.88383 | 5.09431 | 36106 ft | 416 kts | 343° |
| 2026-04-15 12:02 | 43.93863 | 5.06894 | 36107 ft | 416 kts | 343° |
| 2026-04-15 12:02 | 43.99352 | 5.04347 | 36106 ft | 416 kts | 343° |
| 2026-04-15 12:03 | 44.04831 | 5.01800 | 36104 ft | 418 kts | 342° |
| 2026-04-15 12:03 | 44.10344 | 4.99232 | 36114 ft | 419 kts | 342° |
| 2026-04-15 12:04 | 44.15896 | 4.96640 | 36113 ft | 420 kts | 342° |
| 2026-04-15 12:04 | 44.21421 | 4.94056 | 36115 ft | 421 kts | 342° |
| 2026-04-15 12:05 | 44.26917 | 4.91480 | 36124 ft | 421 kts | 342° |
| 2026-04-15 12:05 | 44.32463 | 4.88875 | 36128 ft | 421 kts | 342° |
| 2026-04-15 12:06 | 44.38014 | 4.86263 | 36137 ft | 421 kts | 342° |
| 2026-04-15 12:06 | 44.43578 | 4.83640 | 36140 ft | 421 kts | 342° |
| 2026-04-15 12:07 | 44.49129 | 4.81017 | 36139 ft | 422 kts | 342° |
| 2026-04-15 12:07 | 44.54689 | 4.78485 | 36130 ft | 422 kts | 345° |
| 2026-04-15 12:08 | 44.60439 | 4.76765 | 36125 ft | 422 kts | 350° |
| 2026-04-15 12:08 | 44.66232 | 4.75490 | 36131 ft | 423 kts | 351° |
| 2026-04-15 12:09 | 44.72007 | 4.74273 | 36131 ft | 423 kts | 351° |
| 2026-04-15 12:09 | 44.77857 | 4.73013 | 36142 ft | 424 kts | 351° |
| 2026-04-15 12:10 | 44.83655 | 4.71742 | 36150 ft | 424 kts | 351° |
| 2026-04-15 12:10 | 44.89479 | 4.70450 | 36150 ft | 426 kts | 351° |
| 2026-04-15 12:11 | 44.95331 | 4.69144 | 36160 ft | 427 kts | 351° |
| 2026-04-15 12:11 | 45.01185 | 4.67833 | 36160 ft | 426 kts | 351° |
| 2026-04-15 12:12 | 45.07037 | 4.66521 | 36156 ft | 426 kts | 351° |
| 2026-04-15 12:12 | 45.12891 | 4.65205 | 36155 ft | 428 kts | 350° |
| 2026-04-15 12:13 | 45.18749 | 4.63884 | 36152 ft | 427 kts | 350° |
| 2026-04-15 12:13 | 45.24641 | 4.62546 | 36149 ft | 430 kts | 350° |
| 2026-04-15 12:14 | 45.30492 | 4.61207 | 36147 ft | 428 kts | 350° |
| 2026-04-15 12:14 | 45.36386 | 4.59855 | 36152 ft | 430 kts | 350° |
| 2026-04-15 12:15 | 45.42247 | 4.58510 | 36153 ft | 428 kts | 350° |
| 2026-04-15 12:15 | 45.48164 | 4.57151 | 36157 ft | 429 kts | 350° |
| 2026-04-15 12:16 | 45.54059 | 4.55793 | 36164 ft | 431 kts | 349° |
| 2026-04-15 12:16 | 45.59952 | 4.54432 | 36166 ft | 430 kts | 349° |
| 2026-04-15 12:17 | 45.65865 | 4.53064 | 36170 ft | 432 kts | 350° |
| 2026-04-15 12:17 | 45.71769 | 4.51697 | 36164 ft | 431 kts | 349° |
| 2026-04-15 12:18 | 45.77686 | 4.50322 | 36166 ft | 432 kts | 349° |
| 2026-04-15 12:18 | 45.83603 | 4.48944 | 36165 ft | 432 kts | 349° |
| 2026-04-15 12:19 | 45.89520 | 4.47293 | 36168 ft | 433 kts | 344° |
| 2026-04-15 12:19 | 45.95217 | 4.44731 | 36171 ft | 432 kts | 340° |
| 2026-04-15 12:20 | 46.00916 | 4.41953 | 36173 ft | 432 kts | 341° |
| 2026-04-15 12:20 | 46.06611 | 4.39265 | 36177 ft | 433 kts | 341° |
| 2026-04-15 12:21 | 46.12333 | 4.36643 | 36179 ft | 434 kts | 341° |
| 2026-04-15 12:21 | 46.18092 | 4.34037 | 36179 ft | 434 kts | 341° |
| 2026-04-15 12:22 | 46.23830 | 4.31451 | 36182 ft | 435 kts | 341° |
| 2026-04-15 12:22 | 46.29619 | 4.28839 | 36183 ft | 434 kts | 341° |
| 2026-04-15 12:23 | 46.35350 | 4.26250 | 36187 ft | 436 kts | 341° |
| 2026-04-15 12:23 | 46.41135 | 4.23630 | 36193 ft | 436 kts | 340° |
| 2026-04-15 12:24 | 46.46911 | 4.21008 | 36192 ft | 437 kts | 340° |
| 2026-04-15 12:24 | 46.52690 | 4.18379 | 36190 ft | 438 kts | 340° |
| 2026-04-15 12:25 | 46.58492 | 4.15733 | 36188 ft | 438 kts | 340° |
| 2026-04-15 12:25 | 46.64269 | 4.13093 | 36184 ft | 438 kts | 340° |
| 2026-04-15 12:26 | 46.70074 | 4.10435 | 36182 ft | 439 kts | 340° |
| 2026-04-15 12:26 | 46.75898 | 4.07761 | 36175 ft | 440 kts | 340° |
| 2026-04-15 12:27 | 46.81726 | 4.05081 | 36171 ft | 441 kts | 340° |
| 2026-04-15 12:27 | 46.87569 | 4.02386 | 36166 ft | 440 kts | 340° |
| 2026-04-15 12:28 | 46.93376 | 3.99702 | 36166 ft | 440 kts | 340° |
| 2026-04-15 12:28 | 46.99224 | 3.96991 | 36163 ft | 442 kts | 340° |
| 2026-04-15 12:29 | 47.05042 | 3.94291 | 36164 ft | 442 kts | 340° |
| 2026-04-15 12:29 | 47.10927 | 3.91552 | 36165 ft | 444 kts | 340° |
| 2026-04-15 12:30 | 47.16799 | 3.88813 | 36167 ft | 444 kts | 340° |
| 2026-04-15 12:30 | 47.22683 | 3.86062 | 36169 ft | 445 kts | 339° |
| 2026-04-15 12:31 | 47.28531 | 3.83322 | 36170 ft | 445 kts | 339° |
| 2026-04-15 12:31 | 47.34414 | 3.80559 | 36170 ft | 445 kts | 339° |
| 2026-04-15 12:32 | 47.40294 | 3.77790 | 36172 ft | 446 kts | 339° |
| 2026-04-15 12:32 | 47.46214 | 3.74996 | 36172 ft | 447 kts | 339° |
| 2026-04-15 12:33 | 47.52116 | 3.72203 | 36172 ft | 448 kts | 339° |
| 2026-04-15 12:33 | 47.58042 | 3.69394 | 36173 ft | 448 kts | 339° |
| 2026-04-15 12:34 | 47.63980 | 3.66572 | 36174 ft | 448 kts | 339° |
| 2026-04-15 12:34 | 47.69891 | 3.63756 | 36174 ft | 449 kts | 339° |
| 2026-04-15 12:35 | 47.75857 | 3.60907 | 36180 ft | 451 kts | 339° |
| 2026-04-15 12:35 | 47.81801 | 3.58061 | 36200 ft | 450 kts | 339° |
| 2026-04-15 12:36 | 47.87758 | 3.55201 | 36178 ft | 452 kts | 339° |
| 2026-04-15 12:36 | 47.93682 | 3.52167 | 36177 ft | 451 kts | 336° |
| 2026-04-15 12:37 | 47.99502 | 3.48733 | 36177 ft | 452 kts | 334° |
| 2026-04-15 12:37 | 48.05329 | 3.45214 | 36177 ft | 452 kts | 334° |
| 2026-04-15 12:38 | 48.11149 | 3.41737 | 36177 ft | 453 kts | 335° |
| 2026-04-15 12:38 | 48.16981 | 3.38285 | 36177 ft | 453 kts | 335° |
| 2026-04-15 12:39 | 48.22827 | 3.34836 | 36177 ft | 454 kts | 334° |
| 2026-04-15 12:39 | 48.28715 | 3.31364 | 36176 ft | 455 kts | 334° |
| 2026-04-15 12:40 | 48.34567 | 3.27907 | 36176 ft | 456 kts | 334° |
| 2026-04-15 12:40 | 48.40476 | 3.24409 | 36176 ft | 457 kts | 334° |
| 2026-04-15 12:41 | 48.46374 | 3.20908 | 36176 ft | 458 kts | 334° |
| 2026-04-15 12:41 | 48.52303 | 3.17380 | 36177 ft | 458 kts | 334° |
| 2026-04-15 12:42 | 48.58191 | 3.13866 | 36177 ft | 459 kts | 334° |
| 2026-04-15 12:42 | 48.64125 | 3.10316 | 36177 ft | 459 kts | 334° |
| 2026-04-15 12:43 | 48.70073 | 3.06748 | 36176 ft | 461 kts | 334° |
| 2026-04-15 12:43 | 48.76004 | 3.03184 | 36176 ft | 461 kts | 334° |
| 2026-04-15 12:44 | 48.81956 | 2.99596 | 36173 ft | 462 kts | 334° |
| 2026-04-15 12:44 | 48.87916 | 2.95993 | 36166 ft | 464 kts | 334° |
| 2026-04-15 12:45 | 48.93902 | 2.92368 | 36158 ft | 465 kts | 334° |
| 2026-04-15 12:45 | 48.99887 | 2.88735 | 36160 ft | 465 kts | 334° |
| 2026-04-15 12:46 | 49.05888 | 2.85081 | 36160 ft | 465 kts | 334° |
| 2026-04-15 12:46 | 49.11879 | 2.81424 | 36162 ft | 466 kts | 333° |
| 2026-04-15 12:47 | 49.17872 | 2.77755 | 36161 ft | 467 kts | 333° |
| 2026-04-15 12:47 | 49.23869 | 2.74073 | 36159 ft | 469 kts | 333° |
| 2026-04-15 12:48 | 49.29926 | 2.70347 | 36152 ft | 468 kts | 333° |
| 2026-04-15 12:48 | 49.35936 | 2.66640 | 36152 ft | 469 kts | 333° |
| 2026-04-15 12:49 | 49.41993 | 2.62893 | 36149 ft | 469 kts | 333° |
| 2026-04-15 12:49 | 49.48015 | 2.59156 | 36145 ft | 470 kts | 333° |
| 2026-04-15 12:50 | 49.54050 | 2.55403 | 36142 ft | 471 kts | 333° |
| 2026-04-15 12:50 | 49.60106 | 2.51626 | 36142 ft | 471 kts | 333° |
| 2026-04-15 12:51 | 49.66190 | 2.47826 | 36140 ft | 471 kts | 333° |
| 2026-04-15 12:51 | 49.72271 | 2.44014 | 36134 ft | 474 kts | 333° |
| 2026-04-15 12:52 | 49.78334 | 2.40201 | 36134 ft | 474 kts | 333° |
| 2026-04-15 12:52 | 49.84444 | 2.36349 | 36132 ft | 475 kts | 333° |
| 2026-04-15 12:53 | 49.90542 | 2.32494 | 36126 ft | 476 kts | 332° |
| 2026-04-15 12:53 | 49.93591 | 2.30561 | 35824 ft | 476 kts | 332° |
| 2026-04-15 12:53 | 49.96650 | 2.28621 | 36246 ft | 479 kts | 332° |
| 2026-04-15 12:53 | 49.99723 | 2.26669 | 36141 ft | 477 kts | 332° |
| 2026-04-15 12:54 | 50.02770 | 2.24734 | 36004 ft | 474 kts | 332° |
| 2026-04-15 12:54 | 50.08894 | 2.20830 | 36111 ft | 481 kts | 332° |
| 2026-04-15 12:55 | 50.15042 | 2.16901 | 36111 ft | 479 kts | 332° |
| 2026-04-15 12:55 | 50.21186 | 2.12966 | 36109 ft | 480 kts | 332° |
| 2026-04-15 12:56 | 50.27330 | 2.09019 | 36108 ft | 480 kts | 332° |
| 2026-04-15 12:56 | 50.33478 | 2.04989 | 36098 ft | 480 kts | 330° |
| 2026-04-15 12:57 | 50.39227 | 1.99879 | 36100 ft | 472 kts | 319° |
| 2026-04-15 12:57 | 50.44312 | 1.93484 | 36100 ft | 469 kts | 313° |
| 2026-04-15 12:58 | 50.49156 | 1.86736 | 36100 ft | 468 kts | 312° |
| 2026-04-15 12:58 | 50.54007 | 1.79909 | 36099 ft | 470 kts | 312° |
| 2026-04-15 12:59 | 50.61307 | 1.69750 | 36100 ft | 471 kts | 312° |
| 2026-04-15 12:59 | 50.66239 | 1.62923 | 36100 ft | 471 kts | 313° |
| 2026-04-15 13:00 | 50.71130 | 1.56152 | 36094 ft | 471 kts | 313° |
| 2026-04-15 13:00 | 50.76030 | 1.49350 | 36087 ft | 472 kts | 312° |
| 2026-04-15 13:01 | 50.80947 | 1.42509 | 36085 ft | 475 kts | 313° |
| 2026-04-15 13:01 | 50.85891 | 1.35613 | 36084 ft | 474 kts | 312° |
| 2026-04-15 13:02 | 50.90822 | 1.28723 | 36087 ft | 474 kts | 311° |
| 2026-04-15 13:02 | 50.95731 | 1.21837 | 36083 ft | 477 kts | 311° |
| 2026-04-15 13:03 | 51.00691 | 1.14859 | 36083 ft | 476 kts | 311° |
| 2026-04-15 13:03 | 51.05631 | 1.07894 | 36081 ft | 476 kts | 311° |
| 2026-04-15 13:04 | 51.10486 | 1.00777 | 36078 ft | 477 kts | 309° |
| 2026-04-15 13:04 | 51.15167 | 0.93473 | 36067 ft | 475 kts | 308° |
| 2026-04-15 13:05 | 51.19871 | 0.86035 | 36061 ft | 476 kts | 308° |
| 2026-04-15 13:05 | 51.24550 | 0.78661 | 36056 ft | 477 kts | 308° |
| 2026-04-15 13:06 | 51.29271 | 0.71238 | 36044 ft | 478 kts | 308° |
| 2026-04-15 13:06 | 51.33992 | 0.63817 | 36046 ft | 477 kts | 309° |
| 2026-04-15 13:07 | 51.38697 | 0.56406 | 36045 ft | 479 kts | 309° |
| 2026-04-15 13:07 | 51.43419 | 0.48947 | 36041 ft | 479 kts | 309° |
| 2026-04-15 13:08 | 51.48148 | 0.41453 | 36037 ft | 480 kts | 308° |
| 2026-04-15 13:08 | 51.52850 | 0.33984 | 36031 ft | 480 kts | 308° |
| 2026-04-15 13:09 | 51.57582 | 0.26441 | 36020 ft | 479 kts | 308° |
| 2026-04-15 13:09 | 51.62291 | 0.18913 | 36020 ft | 479 kts | 308° |
| 2026-04-15 13:10 | 51.66991 | 0.11353 | 36017 ft | 480 kts | 308° |
| 2026-04-15 13:10 | 51.71644 | 0.03732 | 36011 ft | 481 kts | 307° |
| 2026-04-15 13:11 | 51.76291 | -0.03944 | 35998 ft | 480 kts | 307° |
| 2026-04-15 13:11 | 51.80951 | -0.11669 | 36002 ft | 484 kts | 307° |
| 2026-04-15 13:12 | 51.85632 | -0.19440 | 35975 ft | 483 kts | 307° |
| 2026-04-15 13:12 | 51.90256 | -0.27115 | 35973 ft | 467 kts | 307° |
| 2026-04-15 13:13 | 51.92469 | -0.30773 | 35990 ft | 452 kts | 307° |
| 2026-04-15 13:13 | 51.94651 | -0.34389 | 35990 ft | 443 kts | 307° |
| 2026-04-15 13:13 | 51.98936 | -0.41565 | 35793 ft | 447 kts | 306° |
| 2026-04-15 13:14 | 52.01085 | -0.45182 | 35331 ft | 447 kts | 306° |
| 2026-04-15 13:14 | 52.03227 | -0.48788 | 34857 ft | 446 kts | 306° |
| 2026-04-15 13:14 | 52.05361 | -0.52385 | 34359 ft | 446 kts | 306° |
| 2026-04-15 13:14 | 52.07495 | -0.55986 | 33802 ft | 447 kts | 306° |
| 2026-04-15 13:15 | 52.09663 | -0.59645 | 33247 ft | 446 kts | 306° |
| 2026-04-15 13:15 | 52.11787 | -0.63231 | 32715 ft | 445 kts | 306° |
| 2026-04-15 13:15 | 52.13928 | -0.66850 | 32164 ft | 444 kts | 305° |
| 2026-04-15 13:15 | 52.16034 | -0.70413 | 31627 ft | 442 kts | 305° |
| 2026-04-15 13:16 | 52.18171 | -0.74033 | 31088 ft | 440 kts | 305° |
| 2026-04-15 13:16 | 52.20276 | -0.77606 | 30560 ft | 439 kts | 305° |
| 2026-04-15 13:16 | 52.22374 | -0.81131 | 30015 ft | 438 kts | 306° |
| 2026-04-15 13:16 | 52.24589 | -0.84582 | 29449 ft | 441 kts | 310° |
| 2026-04-15 13:17 | 52.26990 | -0.87682 | 28902 ft | 445 kts | 317° |
| 2026-04-15 13:17 | 52.29559 | -0.90484 | 28351 ft | 447 kts | 321° |
| 2026-04-15 13:17 | 52.32184 | -0.93105 | 27803 ft | 446 kts | 322° |
| 2026-04-15 13:17 | 52.34863 | -0.95690 | 27251 ft | 445 kts | 323° |
| 2026-04-15 13:18 | 52.37511 | -0.98232 | 26699 ft | 443 kts | 323° |
| 2026-04-15 13:18 | 52.40138 | -1.00767 | 26168 ft | 441 kts | 323° |
| 2026-04-15 13:18 | 52.42768 | -1.03327 | 25614 ft | 439 kts | 323° |
| 2026-04-15 13:18 | 52.45344 | -1.05854 | 25070 ft | 437 kts | 322° |
| 2026-04-15 13:19 | 52.47928 | -1.08408 | 24533 ft | 435 kts | 322° |
| 2026-04-15 13:19 | 52.50524 | -1.10990 | 23982 ft | 432 kts | 322° |
| 2026-04-15 13:19 | 52.53052 | -1.13517 | 23467 ft | 430 kts | 322° |
| 2026-04-15 13:19 | 52.55602 | -1.16077 | 22906 ft | 428 kts | 322° |
| 2026-04-15 13:20 | 52.58102 | -1.18594 | 22383 ft | 425 kts | 323° |
| 2026-04-15 13:20 | 52.60606 | -1.21120 | 21862 ft | 422 kts | 323° |
| 2026-04-15 13:20 | 52.63119 | -1.23658 | 21322 ft | 419 kts | 323° |
| 2026-04-15 13:20 | 52.65585 | -1.26151 | 20823 ft | 416 kts | 323° |
| 2026-04-15 13:21 | 52.68012 | -1.28609 | 20294 ft | 413 kts | 323° |
| 2026-04-15 13:21 | 52.70433 | -1.31064 | 19948 ft | 404 kts | 323° |
| 2026-04-15 13:21 | 52.72795 | -1.33459 | 19660 ft | 396 kts | 323° |
| 2026-04-15 13:21 | 52.75116 | -1.35821 | 19177 ft | 393 kts | 323° |
| 2026-04-15 13:22 | 52.77438 | -1.38193 | 18686 ft | 391 kts | 323° |
| 2026-04-15 13:22 | 52.79722 | -1.40532 | 18187 ft | 388 kts | 323° |
| 2026-04-15 13:22 | 52.82005 | -1.42874 | 17708 ft | 385 kts | 323° |
| 2026-04-15 13:22 | 52.84263 | -1.45190 | 17227 ft | 383 kts | 323° |
| 2026-04-15 13:23 | 52.86517 | -1.47503 | 16749 ft | 380 kts | 323° |
| 2026-04-15 13:23 | 52.88729 | -1.49774 | 16277 ft | 378 kts | 323° |
| 2026-04-15 13:23 | 52.90961 | -1.52069 | 15815 ft | 375 kts | 323° |
| 2026-04-15 13:23 | 52.93163 | -1.54337 | 15339 ft | 374 kts | 323° |
| 2026-04-15 13:24 | 52.95351 | -1.56591 | 14850 ft | 372 kts | 323° |
| 2026-04-15 13:24 | 52.97532 | -1.58840 | 14396 ft | 364 kts | 323° |
| 2026-04-15 13:24 | 52.99629 | -1.60999 | 13918 ft | 356 kts | 323° |
| 2026-04-15 13:24 | 53.01696 | -1.63129 | 13512 ft | 348 kts | 323° |
| 2026-04-15 13:25 | 53.03733 | -1.65234 | 13051 ft | 342 kts | 322° |
| 2026-04-15 13:25 | 53.05616 | -1.67480 | 12625 ft | 329 kts | 313° |
| 2026-04-15 13:25 | 53.07212 | -1.70093 | 12219 ft | 317 kts | 305° |
| 2026-04-15 13:25 | 53.08634 | -1.72856 | 11817 ft | 309 kts | 302° |
| 2026-04-15 13:26 | 53.09956 | -1.75561 | 11434 ft | 302 kts | 302° |
| 2026-04-15 13:26 | 53.11267 | -1.78225 | 11046 ft | 296 kts | 302° |
| 2026-04-15 13:26 | 53.12575 | -1.80830 | 10665 ft | 292 kts | 303° |
| 2026-04-15 13:26 | 53.13896 | -1.83433 | 10296 ft | 296 kts | 304° |
| 2026-04-15 13:27 | 53.15224 | -1.86027 | 9923 ft | 294 kts | 304° |
| 2026-04-15 13:27 | 53.16534 | -1.88567 | 9679 ft | 282 kts | 304° |
| 2026-04-15 13:27 | 53.17785 | -1.90991 | 9348 ft | 276 kts | 303° |
| 2026-04-15 13:27 | 53.19035 | -1.93439 | 9003 ft | 281 kts | 303° |
| 2026-04-15 13:28 | 53.20300 | -1.95920 | 8646 ft | 281 kts | 303° |
| 2026-04-15 13:28 | 53.21562 | -1.98381 | 8293 ft | 274 kts | 303° |
| 2026-04-15 13:28 | 53.22781 | -2.00755 | 7962 ft | 269 kts | 303° |
| 2026-04-15 13:28 | 53.23982 | -2.03103 | 7829 ft | 265 kts | 303° |
| 2026-04-15 13:29 | 53.25146 | -2.05376 | 7677 ft | 252 kts | 302° |
| 2026-04-15 13:29 | 53.26366 | -2.07433 | 7488 ft | 251 kts | 319° |
| 2026-04-15 13:29 | 53.28045 | -2.08343 | 7086 ft | 265 kts | 359° |
| 2026-04-15 13:29 | 53.29771 | -2.07442 | 6857 ft | 261 kts | 37° |
| 2026-04-15 13:30 | 53.31072 | -2.05437 | 6567 ft | 256 kts | 50° |
| 2026-04-15 13:30 | 53.32294 | -2.03225 | 6052 ft | 263 kts | 51° |
| 2026-04-15 13:30 | 53.33530 | -2.00978 | 5723 ft | 260 kts | 50° |
| 2026-04-15 13:30 | 53.34739 | -1.98790 | 5375 ft | 259 kts | 50° |
| 2026-04-15 13:31 | 53.35960 | -1.96582 | 5034 ft | 257 kts | 50° |
| 2026-04-15 13:31 | 53.37160 | -1.94427 | 4873 ft | 250 kts | 50° |
| 2026-04-15 13:31 | 53.38348 | -1.92312 | 4749 ft | 252 kts | 50° |
| 2026-04-15 13:31 | 53.39540 | -1.90194 | 4624 ft | 251 kts | 50° |
| 2026-04-15 13:32 | 53.40742 | -1.88068 | 4494 ft | 251 kts | 48° |
| 2026-04-15 13:32 | 53.42194 | -1.86519 | 4364 ft | 246 kts | 13° |
| 2026-04-15 13:32 | 53.43786 | -1.86622 | 4262 ft | 219 kts | 331° |
| 2026-04-15 13:32 | 53.45050 | -1.87849 | 4145 ft | 201 kts | 318° |
| 2026-04-15 13:33 | 53.46201 | -1.89064 | 3996 ft | 196 kts | 320° |
| 2026-04-15 13:33 | 53.47370 | -1.90235 | 3756 ft | 194 kts | 320° |
| 2026-04-15 13:33 | 53.48266 | -1.91761 | 3512 ft | 173 kts | 280° |
| 2026-04-15 13:33 | 53.48348 | -1.93607 | 3481 ft | 159 kts | 255° |
| 2026-04-15 13:34 | 53.48311 | -1.95487 | 3448 ft | 160 kts | 259° |
| 2026-04-15 13:34 | 53.48328 | -1.97359 | 3454 ft | 160 kts | 260° |
| 2026-04-15 13:34 | 53.48242 | -1.99184 | 3452 ft | 153 kts | 244° |
| 2026-04-15 13:34 | 53.47818 | -2.00761 | 3453 ft | 149 kts | 233° |
| 2026-04-15 13:35 | 53.47300 | -2.02242 | 3453 ft | 146 kts | 230° |
| 2026-04-15 13:35 | 53.46722 | -2.03648 | 3457 ft | 147 kts | 228° |
| 2026-04-15 13:35 | 53.46114 | -2.05023 | 3429 ft | 146 kts | 227° |
| 2026-04-15 13:35 | 53.45506 | -2.06372 | 3253 ft | 148 kts | 226° |
| 2026-04-15 13:36 | 53.44877 | -2.07715 | 3050 ft | 146 kts | 225° |
| 2026-04-15 13:36 | 53.44247 | -2.09041 | 2849 ft | 148 kts | 226° |
| 2026-04-15 13:36 | 53.43600 | -2.10403 | 2638 ft | 146 kts | 227° |
| 2026-04-15 13:36 | 53.42986 | -2.11685 | 2449 ft | 135 kts | 227° |
| 2026-04-15 13:37 | 53.42422 | -2.12848 | 2256 ft | 127 kts | 224° |
| 2026-04-15 13:37 | 53.41872 | -2.13999 | 2101 ft | 125 kts | 229° |
| 2026-04-15 13:37 | 53.41342 | -2.15148 | 1903 ft | 125 kts | 223° |
| 2026-04-15 13:37 | 53.40784 | -2.16261 | 1750 ft | 128 kts | 223° |
| 2026-04-15 13:38 | 53.40234 | -2.17401 | 1524 ft | 125 kts | 228° |
| 2026-04-15 13:38 | 53.39706 | -2.18515 | 1498 ft | 123 kts | 221° |
| 2026-04-15 13:38 | 53.39117 | -2.19717 | 1264 ft | 141 kts | 229° |
| 2026-04-15 13:38 | 53.38519 | -2.21004 | 1047 ft | 140 kts | 226° |
| 2026-04-15 13:39 | 53.37903 | -2.22280 | 835 ft | 142 kts | 227° |
| 2026-04-15 13:39 | 53.37285 | -2.23558 | 646 ft | 142 kts | 226° |
| 2026-04-15 13:39 | 53.36664 | -2.24825 | 448 ft | 142 kts | 229° |
| 2026-04-15 13:39 | 53.36052 | -2.26101 | 282 ft | 136 kts | 228° |
| 2026-04-15 13:40 | 53.35545 | -2.27148 | 255 ft | 86 kts | 227° |
| 2026-04-15 13:40 | 53.35300 | -2.27667 | 241 ft | 29 kts | 243° |
| 2026-04-15 13:40 | 53.35260 | -2.27899 | 238 ft | 21 kts | 257° |
| 2026-04-15 13:40 | 53.35234 | -2.28139 | 235 ft | 19 kts | 271° |
| 2026-04-15 13:41 | 53.35302 | -2.28181 | 235 ft | 12 kts | 53° |
| 2026-04-15 13:41 | 53.35357 | -2.28083 | 236 ft | 10 kts | 44° |
| 2026-04-15 13:41 | 53.35401 | -2.28008 | 238 ft | 7 kts | 46° |
| 2026-04-15 13:41 | 53.35430 | -2.27961 | 238 ft | 4 kts | 45° |
| 2026-04-15 13:42 | 53.35453 | -2.27926 | 238 ft | 4 kts | 43° |
| 2026-04-15 13:42 | 53.35474 | -2.27893 | 238 ft | 4 kts | 43° |
| 2026-04-15 13:42 | 53.35499 | -2.27853 | 238 ft | 8 kts | 44° |
| 2026-04-15 13:42 | 53.35563 | -2.27749 | 240 ft | 17 kts | 44° |
| 2026-04-15 13:43 | 53.35663 | -2.27577 | 243 ft | 20 kts | 49° |
| 2026-04-15 13:43 | 53.35748 | -2.27404 | 246 ft | 17 kts | 51° |
| 2026-04-15 13:43 | 53.35811 | -2.27266 | 253 ft | 12 kts | 52° |
| 2026-04-15 13:43 | 53.35872 | -2.27223 | 256 ft | 10 kts | 353° |
| 2026-04-15 13:44 | 53.35959 | -2.27240 | 257 ft | 14 kts | 354° |
| 2026-04-15 13:44 | 53.36034 | -2.27211 | 259 ft | 8 kts | 72° |
| 2026-04-15 13:44 | 53.36047 | -2.27150 | 261 ft | 5 kts | 71° |
| 2026-04-15 13:44 | 53.36050 | -2.27134 | 261 ft | 0 kts | 71° |